Ana Sayfa
METAR-TAF:

METAR-TAF

Havaalanları :

Dare County Regional Airport

Manteo, Kuzey Carolina, Amerika Birleşik Devletleri

Enlem: 35-55N, Boylam: 075-42W, yükseklik: 4 m

Güncel hava durumu gözlemi

Rapor saat 03:40 UTC de 17 dakika önce yapıldı.
Rüzgar doğu/güneydoğudan 4 kt
Sıcaklık 26°C
Nem 79%
Basınç 1019 hPa
Görüş mesafesi: 16.1 km
Açık gökyüzü

METAR: KMQI 160340Z AUTO 12004KT 10SM CLR 26/22 A3010 RMK AO2 T02560223

Saat: 23:57 (03:57 UTC)


TAF: eksik

4.000'den fazla havaalanı için hava durumu gözlemleri ve tahminleri (METAR ve TAF raporları).

Kullanılabilir istasyonlar harita üzerinde sarı ve kırmızı noktalarla gösterilir.

İstasyonun adını görmek için fareyi noktanın üzerinde gezdirin.

Sonrasında hava gözlem ve tahminlerini görmek için tıklayın.

Haritayı değiştirmek için: yaklaştırmak için siyah artı işaretli yeşil düğmeye ve uzaklaştırmak için de eksi işaretli düğmeye hızla tıklayın; bitişik haritalar için yeşil okları kullanın.


METAR-TAF: